createdAt,value
2018-03-26T00:01:59.579Z,1.30
2018-03-26T00:04:27.166Z,1.30
2018-03-26T00:06:55.523Z,1.30
2018-03-26T00:09:23.111Z,1.20
2018-03-26T00:11:51.464Z,1.30
2018-03-26T00:14:19.047Z,1.30
2018-03-26T00:16:46.628Z,1.30
2018-03-26T00:19:14.983Z,1.30
2018-03-26T00:21:42.576Z,1.30
2018-03-26T00:24:10.931Z,1.20
2018-03-26T00:26:38.519Z,1.20
2018-03-26T00:29:06.878Z,1.10
2018-03-26T00:31:34.465Z,1.10
2018-03-26T00:34:02.818Z,1.00
2018-03-26T00:36:30.407Z,1.00
2018-03-26T00:38:57.994Z,1.00
2018-03-26T00:41:25.583Z,0.90
2018-03-26T00:43:53.179Z,0.90
2018-03-26T00:46:20.810Z,0.90
2018-03-26T00:48:48.410Z,0.90
2018-03-26T00:51:15.998Z,0.90
2018-03-26T00:53:44.505Z,0.80
2018-03-26T00:56:12.087Z,0.80
2018-03-26T00:58:39.675Z,0.80
2018-03-26T01:01:07.298Z,0.90
2018-03-26T01:03:34.915Z,0.90
2018-03-26T01:06:02.505Z,0.90
2018-03-26T01:08:30.088Z,0.90
2018-03-26T01:10:58.443Z,1.00
2018-03-26T01:13:26.036Z,0.90
2018-03-26T01:15:54.391Z,1.00
2018-03-26T01:18:21.976Z,1.00
2018-03-26T01:20:49.570Z,1.00
2018-03-26T01:23:17.156Z,1.00
2018-03-26T01:25:44.748Z,1.00
2018-03-26T01:28:12.335Z,1.00
2018-03-26T01:30:39.923Z,1.00
2018-03-26T01:33:07.502Z,1.00
2018-03-26T01:35:35.090Z,1.00
2018-03-26T01:38:02.680Z,1.00
2018-03-26T01:40:30.267Z,1.00
2018-03-26T01:42:58.618Z,1.00
2018-03-26T01:45:26.221Z,1.00
2018-03-26T01:47:53.855Z,1.00
2018-03-26T01:50:21.463Z,1.00
2018-03-26T01:52:49.048Z,1.00
2018-03-26T01:55:16.635Z,1.00
2018-03-26T01:57:44.220Z,1.00
2018-03-26T02:00:11.803Z,1.00
2018-03-26T02:02:40.154Z,1.00
2018-03-26T02:05:07.735Z,1.00
2018-03-26T02:07:35.327Z,1.00
2018-03-26T02:10:02.958Z,1.00
2018-03-26T02:12:30.600Z,1.00
2018-03-26T02:14:58.218Z,1.00
2018-03-26T02:17:25.867Z,1.00
2018-03-26T02:19:53.475Z,1.00
2018-03-26T02:22:21.063Z,1.00
2018-03-26T02:24:48.649Z,1.00
2018-03-26T02:27:16.239Z,1.10
2018-03-26T02:29:43.834Z,1.00
2018-03-26T02:32:11.451Z,1.00
2018-03-26T02:34:39.804Z,1.00
2018-03-26T02:37:07.407Z,1.00
2018-03-26T02:39:35.758Z,1.00
2018-03-26T02:42:03.356Z,1.00
2018-03-26T02:44:31.708Z,1.00
2018-03-26T02:46:59.292Z,1.00
2018-03-26T02:49:27.643Z,1.00
2018-03-26T02:51:55.243Z,1.00
2018-03-26T02:54:22.835Z,1.00
2018-03-26T02:56:50.433Z,1.10
2018-03-26T02:59:18.043Z,1.00
2018-03-26T03:01:46.405Z,1.00
2018-03-26T03:04:13.991Z,1.00
2018-03-26T03:06:42.371Z,1.10
2018-03-26T03:09:10.715Z,1.10
2018-03-26T03:11:38.299Z,1.10
2018-03-26T03:14:05.926Z,1.10
2018-03-26T03:16:33.511Z,1.10
2018-03-26T03:19:01.091Z,1.10
2018-03-26T03:21:28.687Z,1.10
2018-03-26T03:23:56.279Z,1.00
2018-03-26T03:26:23.867Z,1.10
2018-03-26T03:28:51.448Z,1.10
2018-03-26T03:31:19.040Z,1.10
2018-03-26T03:33:46.637Z,1.10
2018-03-26T03:36:14.271Z,1.10
2018-03-26T03:38:42.618Z,1.10
2018-03-26T03:41:10.207Z,1.00
2018-03-26T03:43:38.562Z,1.10
2018-03-26T03:46:06.151Z,1.10
2018-03-26T03:48:34.502Z,1.10
2018-03-26T03:51:02.091Z,1.10
2018-03-26T03:53:29.715Z,1.20
2018-03-26T03:55:57.299Z,1.10
2018-03-26T03:58:24.890Z,1.20
2018-03-26T04:00:52.478Z,1.20
2018-03-26T04:03:20.831Z,1.20
2018-03-26T04:05:48.427Z,1.20
2018-03-26T04:08:16.015Z,1.20
2018-03-26T04:10:43.606Z,1.10
2018-03-26T04:13:11.194Z,1.10
2018-03-26T04:15:38.791Z,1.10
2018-03-26T04:18:06.382Z,1.20
2018-03-26T04:20:33.968Z,1.10
2018-03-26T04:23:01.551Z,1.10
2018-03-26T04:25:29.138Z,1.10
2018-03-26T04:27:57.487Z,1.10
2018-03-26T04:30:25.075Z,1.10
2018-03-26T04:32:53.422Z,1.10
2018-03-26T04:35:21.068Z,1.10
2018-03-26T04:37:49.383Z,1.10
2018-03-26T04:40:16.987Z,1.10
2018-03-26T04:42:44.577Z,1.10
2018-03-26T04:45:12.211Z,1.00
2018-03-26T04:47:40.564Z,1.00
2018-03-26T04:50:08.163Z,1.00
2018-03-26T04:52:35.752Z,1.00
2018-03-26T04:55:03.367Z,1.10
2018-03-26T04:57:30.954Z,1.10
2018-03-26T04:59:59.334Z,1.10
2018-03-26T05:02:27.687Z,1.10
2018-03-26T05:04:55.276Z,1.00
2018-03-26T05:07:23.631Z,1.10
2018-03-26T05:09:51.264Z,1.00
2018-03-26T05:12:18.843Z,1.00
2018-03-26T05:14:46.486Z,1.00
2018-03-26T05:17:14.111Z,1.00
2018-03-26T05:19:42.468Z,1.00
2018-03-26T05:22:10.058Z,1.00
2018-03-26T05:24:37.651Z,1.00
2018-03-26T05:27:05.231Z,1.00
2018-03-26T05:29:32.823Z,1.00
2018-03-26T05:32:00.408Z,1.10
2018-03-26T05:34:27.990Z,1.10
2018-03-26T05:36:56.338Z,1.00
2018-03-26T05:39:23.930Z,1.00
2018-03-26T05:41:52.282Z,1.10
2018-03-26T05:44:19.867Z,1.00
2018-03-26T05:46:47.455Z,1.00
2018-03-26T05:49:15.044Z,1.10
2018-03-26T05:51:42.632Z,1.10
2018-03-26T05:54:10.227Z,1.10
2018-03-26T05:56:37.829Z,1.10
2018-03-26T05:59:05.475Z,1.10
2018-03-26T06:01:33.827Z,1.10
2018-03-26T06:04:01.420Z,1.10
2018-03-26T06:06:29.776Z,1.10
2018-03-26T06:08:57.408Z,1.10
2018-03-26T06:11:25.480Z,1.10
2018-03-26T06:13:53.072Z,1.10
2018-03-26T06:16:20.667Z,1.10
2018-03-26T06:18:48.282Z,1.10
2018-03-26T06:21:15.947Z,1.10
2018-03-26T06:23:53.470Z,1.20
2018-03-26T06:26:21.073Z,1.20
2018-03-26T06:28:48.683Z,1.20
2018-03-26T06:31:16.304Z,1.20
2018-03-26T06:33:44.703Z,1.30
2018-03-26T06:36:31.975Z,1.30
2018-03-26T06:39:00.503Z,1.30
2018-03-26T06:41:28.097Z,1.30
2018-03-26T06:43:55.711Z,1.30
2018-03-26T06:46:23.346Z,1.40
2018-03-26T06:48:50.932Z,1.30
2018-03-26T06:51:19.290Z,1.40
2018-03-26T06:53:46.878Z,1.40
2018-03-26T06:56:15.275Z,1.40
2018-03-26T06:58:43.628Z,1.40
2018-03-26T07:01:11.223Z,1.40
2018-03-26T07:03:38.802Z,1.40
2018-03-26T07:06:06.398Z,1.40
2018-03-26T07:08:33.979Z,1.40
2018-03-26T07:11:01.583Z,1.40
2018-03-26T07:13:29.935Z,1.50
2018-03-26T07:15:57.523Z,1.50
2018-03-26T07:18:25.870Z,1.50
2018-03-26T07:20:53.450Z,1.50
2018-03-26T07:23:21.035Z,1.50
2018-03-26T07:25:49.386Z,1.50
2018-03-26T07:28:16.966Z,1.60
2018-03-26T07:30:44.549Z,1.60
2018-03-26T07:33:12.906Z,1.60
2018-03-26T07:35:40.495Z,1.60
2018-03-26T07:38:08.899Z,1.70
2018-03-26T07:40:36.486Z,1.70
2018-03-26T07:43:04.074Z,1.70
2018-03-26T07:45:31.659Z,1.70
2018-03-26T07:48:00.011Z,1.80
2018-03-26T07:50:27.594Z,1.80
2018-03-26T07:52:55.178Z,1.90
2018-03-26T07:55:23.528Z,1.90
2018-03-26T07:57:51.107Z,1.90
2018-03-26T08:00:18.774Z,2.00
2018-03-26T08:02:46.418Z,2.10
2018-03-26T08:05:14.019Z,2.10
2018-03-26T08:07:42.410Z,2.30
2018-03-26T08:10:10.759Z,2.30
2018-03-26T08:12:38.361Z,2.30
2018-03-26T08:15:05.988Z,2.40
2018-03-26T08:17:33.566Z,2.40
2018-03-26T08:20:01.151Z,2.40
2018-03-26T08:22:29.515Z,2.50
2018-03-26T08:24:57.104Z,2.50
2018-03-26T08:27:25.466Z,2.70
2018-03-26T08:29:53.050Z,2.70
2018-03-26T08:32:20.659Z,2.80
2018-03-26T08:34:48.250Z,2.80
2018-03-26T08:37:15.851Z,2.80
2018-03-26T08:39:43.439Z,2.80
2018-03-26T08:42:11.096Z,2.70
2018-03-26T08:44:39.430Z,2.80
2018-03-26T08:47:07.015Z,2.80
2018-03-26T08:49:35.371Z,2.90
2018-03-26T08:52:03.003Z,2.90
2018-03-26T08:54:30.582Z,3.00
2018-03-26T08:56:58.163Z,3.00
2018-03-26T08:59:25.812Z,3.00
2018-03-26T09:01:53.398Z,3.00
2018-03-26T09:04:20.982Z,3.10
2018-03-26T09:06:48.570Z,3.10
2018-03-26T09:09:16.159Z,3.10
2018-03-26T09:11:43.788Z,3.10
2018-03-26T09:14:12.139Z,3.10
2018-03-26T09:16:39.735Z,3.10
2018-03-26T09:19:07.331Z,3.10
2018-03-26T09:21:34.955Z,3.20
2018-03-26T09:24:03.407Z,3.50
2018-03-26T09:26:30.994Z,3.40
2018-03-26T09:28:58.599Z,3.60
2018-03-26T09:31:26.791Z,3.80
2018-03-26T09:33:54.370Z,4.10
2018-03-26T09:36:21.950Z,4.30
2018-03-26T09:38:49.530Z,4.50
2018-03-26T09:41:17.109Z,4.70
2018-03-26T09:43:45.455Z,4.90
2018-03-26T09:46:13.068Z,4.90
2018-03-26T09:48:40.660Z,5.10
2018-03-26T09:51:08.294Z,5.20
2018-03-26T09:53:36.646Z,5.50
2018-03-26T09:56:04.240Z,5.50
2018-03-26T09:58:32.596Z,5.60
2018-03-26T10:01:02.112Z,5.60
2018-03-26T10:03:29.741Z,5.70
2018-03-26T10:05:57.327Z,5.80
2018-03-26T10:08:24.919Z,5.80
2018-03-26T10:10:53.275Z,5.90
2018-03-26T10:13:21.104Z,5.80
2018-03-26T10:15:49.021Z,5.90
2018-03-26T10:18:19.602Z,6.10
2018-03-26T10:20:52.030Z,6.10
2018-03-26T10:23:19.972Z,6.10
2018-03-26T10:26:02.023Z,6.00
2018-03-26T10:28:32.806Z,6.00
2018-03-26T10:31:01.898Z,6.10
2018-03-26T10:33:30.261Z,6.10
2018-03-26T10:36:05.735Z,6.10
2018-03-26T10:38:35.714Z,6.10
2018-03-26T10:41:04.650Z,6.30
2018-03-26T10:43:32.593Z,6.30
2018-03-26T10:46:00.341Z,6.30
2018-03-26T10:48:28.760Z,6.40
2018-03-26T10:50:56.343Z,6.30
2018-03-26T10:53:23.927Z,6.40
2018-03-26T10:55:52.931Z,6.40
2018-03-26T10:58:21.753Z,6.50
2018-03-26T11:00:54.537Z,6.70
2018-03-26T11:03:24.471Z,6.80
2018-03-26T11:05:55.568Z,6.70
2018-03-26T11:08:26.005Z,6.70
2018-03-26T11:11:17.139Z,6.60
2018-03-26T11:13:44.963Z,6.50
2018-03-26T11:16:12.542Z,6.50
2018-03-26T11:18:40.130Z,6.60
2018-03-26T11:21:08.474Z,6.60
2018-03-26T11:23:36.059Z,6.60
2018-03-26T11:26:03.659Z,6.70
2018-03-26T11:28:31.282Z,6.70
2018-03-26T11:30:58.947Z,6.70
2018-03-26T11:33:26.558Z,6.90
2018-03-26T11:35:54.142Z,7.00
2018-03-26T11:38:21.754Z,7.20
2018-03-26T11:40:50.985Z,7.40
2018-03-26T11:43:18.584Z,7.40
2018-03-26T11:45:46.179Z,7.60
2018-03-26T11:48:13.775Z,7.90
2018-03-26T11:50:41.366Z,8.10
2018-03-26T11:53:08.946Z,8.30
2018-03-26T11:55:36.591Z,8.50
2018-03-26T11:58:04.223Z,8.70
2018-03-26T12:00:32.583Z,9.00
2018-03-26T12:03:00.183Z,9.00
2018-03-26T12:05:27.769Z,9.20
2018-03-26T12:07:55.363Z,9.40
2018-03-26T12:10:22.947Z,9.50
2018-03-26T12:12:50.531Z,9.70
2018-03-26T12:15:18.882Z,9.90
2018-03-26T12:17:46.475Z,9.80
2018-03-26T12:20:26.750Z,10.20
2018-03-26T12:22:54.339Z,10.20
2018-03-26T12:25:21.989Z,10.20
2018-03-26T12:28:01.420Z,10.30
2018-03-26T12:30:29.023Z,10.30
2018-03-26T12:32:56.664Z,10.20
2018-03-26T12:35:36.211Z,10.30
2018-03-26T12:38:03.863Z,10.40
2018-03-26T12:40:43.166Z,10.40
2018-03-26T12:43:11.566Z,10.40
2018-03-26T12:45:50.915Z,10.40
2018-03-26T12:48:18.511Z,10.40
2018-03-26T12:50:58.030Z,10.20
2018-03-26T12:53:25.619Z,9.90
2018-03-26T12:55:53.207Z,9.70
2018-03-26T12:58:33.380Z,9.50
2018-03-26T13:01:12.852Z,9.50
2018-03-26T13:03:40.451Z,9.40
2018-03-26T13:06:08.802Z,9.30
2018-03-26T13:08:36.480Z,9.30
2018-03-26T13:11:04.075Z,9.30
2018-03-26T13:13:32.434Z,9.40
2018-03-26T13:16:00.019Z,9.40
2018-03-26T13:18:28.411Z,9.40
2018-03-26T13:20:56.763Z,9.40
2018-03-26T13:23:24.360Z,9.40
2018-03-26T13:25:51.955Z,9.30
2018-03-26T13:28:19.534Z,9.20
2018-03-26T13:30:47.253Z,9.10
2018-03-26T13:33:14.891Z,9.00
2018-03-26T13:35:42.479Z,8.90
2018-03-26T13:38:10.828Z,8.70
2018-03-26T13:40:38.413Z,8.60
2018-03-26T13:43:05.994Z,8.50
2018-03-26T13:45:34.392Z,8.40
2018-03-26T13:48:01.980Z,8.40
2018-03-26T13:50:29.627Z,8.30
2018-03-26T13:52:57.235Z,8.30
2018-03-26T13:55:24.823Z,8.30
2018-03-26T13:57:53.184Z,8.30
2018-03-26T14:00:20.784Z,8.30
2018-03-26T14:02:49.134Z,8.30
2018-03-26T14:05:16.719Z,8.20
2018-03-26T14:07:45.085Z,8.30
2018-03-26T14:10:24.583Z,8.30
2018-03-26T14:13:04.023Z,8.30
2018-03-26T14:15:43.610Z,8.20
2018-03-26T14:18:11.984Z,8.20
2018-03-26T14:20:40.356Z,8.00
2018-03-26T14:23:07.947Z,8.00
2018-03-26T14:25:36.494Z,7.80
2018-03-26T14:28:04.108Z,7.80
2018-03-26T14:30:32.467Z,7.60
2018-03-26T14:33:00.056Z,7.60
2018-03-26T14:35:43.314Z,7.50
2018-03-26T14:38:11.678Z,7.30
2018-03-26T14:40:39.271Z,7.30
2018-03-26T14:43:07.820Z,7.20
2018-03-26T14:45:36.151Z,7.00
2018-03-26T14:48:03.761Z,7.00
2018-03-26T14:50:31.359Z,6.90
2018-03-26T14:52:58.998Z,6.80
2018-03-26T14:55:26.589Z,6.70
2018-03-26T14:57:54.180Z,6.70
2018-03-26T15:00:21.780Z,6.60
2018-03-26T15:02:50.198Z,6.40
2018-03-26T15:05:18.516Z,6.40
2018-03-26T15:07:46.102Z,6.30
2018-03-26T15:10:14.459Z,6.20
2018-03-26T15:12:42.838Z,6.10
2018-03-26T15:15:10.434Z,6.10
2018-03-26T15:17:38.787Z,6.10
2018-03-26T15:20:06.388Z,6.10
2018-03-26T15:22:33.973Z,6.00
2018-03-26T15:25:01.612Z,5.90
2018-03-26T15:27:30.006Z,5.80
2018-03-26T15:29:58.390Z,5.80
2018-03-26T15:32:26.022Z,5.70
2018-03-26T15:34:53.602Z,5.70
2018-03-26T15:37:21.982Z,5.60
2018-03-26T15:39:49.580Z,5.60
2018-03-26T15:42:17.231Z,5.60
2018-03-26T15:44:44.825Z,5.50
2018-03-26T15:47:12.423Z,5.40
2018-03-26T15:49:40.011Z,5.40
2018-03-26T15:52:08.359Z,5.20
2018-03-26T15:54:36.001Z,5.20
2018-03-26T15:57:03.613Z,5.20
2018-03-26T15:59:31.226Z,5.10
2018-03-26T16:01:58.367Z,5.10
2018-03-26T16:04:25.978Z,5.00
2018-03-26T16:06:53.630Z,5.00
2018-03-26T16:09:21.251Z,4.90
2018-03-26T16:11:49.608Z,4.90
2018-03-26T16:14:17.265Z,4.80
2018-03-26T16:16:44.861Z,4.80
2018-03-26T16:19:13.219Z,4.80
2018-03-26T16:21:40.812Z,4.70
2018-03-26T16:24:09.168Z,4.70
2018-03-26T16:26:36.767Z,4.70
2018-03-26T16:29:04.382Z,4.60
2018-03-26T16:31:32.012Z,4.60
2018-03-26T16:33:59.616Z,4.60
2018-03-26T16:36:27.198Z,4.60
2018-03-26T16:38:54.819Z,4.50
2018-03-26T16:41:34.237Z,4.50
2018-03-26T16:44:01.820Z,4.50
2018-03-26T16:46:29.407Z,4.50
2018-03-26T16:48:57.040Z,4.50
2018-03-26T16:51:24.622Z,4.50
2018-03-26T16:53:52.239Z,4.40
2018-03-26T16:56:20.596Z,4.30
2018-03-26T16:58:49.179Z,4.30
2018-03-26T17:01:17.788Z,4.30
2018-03-26T17:03:45.456Z,4.30
2018-03-26T17:06:13.040Z,4.20
2018-03-26T17:08:41.396Z,4.30
2018-03-26T17:11:09.056Z,4.20
2018-03-26T17:13:36.671Z,4.30
2018-03-26T17:16:04.306Z,4.30
2018-03-26T17:18:31.921Z,4.20
2018-03-26T17:20:59.584Z,4.20
2018-03-26T17:23:27.197Z,4.20
2018-03-26T17:25:54.791Z,4.20
2018-03-26T17:28:22.382Z,4.20
2018-03-26T17:30:49.976Z,4.20
2018-03-26T17:33:17.568Z,4.20
2018-03-26T17:35:45.933Z,4.10
2018-03-26T17:38:13.528Z,4.10
2018-03-26T17:40:41.124Z,4.10
2018-03-26T17:43:08.715Z,4.10
2018-03-26T17:45:36.323Z,4.00
2018-03-26T17:48:03.985Z,4.00
2018-03-26T17:50:32.339Z,4.00
2018-03-26T17:52:59.931Z,3.90
2018-03-26T17:55:28.319Z,3.90
2018-03-26T17:57:55.923Z,3.90
2018-03-26T18:00:23.511Z,3.90
2018-03-26T18:02:51.106Z,3.90
2018-03-26T18:05:19.595Z,3.90
2018-03-26T18:07:47.955Z,3.80
2018-03-26T18:10:16.420Z,3.80
2018-03-26T18:12:44.016Z,3.80
2018-03-26T18:15:12.365Z,3.70
2018-03-26T18:17:39.950Z,3.70
2018-03-26T18:20:07.564Z,3.70
2018-03-26T18:22:35.542Z,3.70
2018-03-26T18:25:03.683Z,3.60
2018-03-26T18:27:31.351Z,3.70
2018-03-26T18:29:59.712Z,3.60
2018-03-26T18:32:27.315Z,3.60
2018-03-26T18:34:54.903Z,3.60
2018-03-26T18:37:22.500Z,3.60
2018-03-26T18:39:50.097Z,3.50
2018-03-26T18:42:18.488Z,3.50
2018-03-26T18:44:46.083Z,3.50
2018-03-26T18:47:13.771Z,3.50
2018-03-26T18:49:41.350Z,3.50
2018-03-26T18:52:08.977Z,3.50
2018-03-26T18:54:36.572Z,3.50
2018-03-26T18:57:04.213Z,3.50
2018-03-26T18:59:31.779Z,3.50
2018-03-26T19:02:00.103Z,3.40
2018-03-26T19:04:28.463Z,3.40
2018-03-26T19:06:56.074Z,3.40
2018-03-26T19:09:23.687Z,3.40
2018-03-26T19:11:51.275Z,3.40
2018-03-26T19:14:18.867Z,3.40
2018-03-26T19:16:46.933Z,3.40
2018-03-26T19:19:14.547Z,3.40
2018-03-26T19:21:42.178Z,3.40
2018-03-26T19:24:10.155Z,3.40
2018-03-26T19:26:37.743Z,3.40
2018-03-26T19:29:05.368Z,3.30
2018-03-26T19:31:33.750Z,3.30
2018-03-26T19:34:02.102Z,3.40
2018-03-26T19:36:29.691Z,3.30
2018-03-26T19:38:58.044Z,3.30
2018-03-26T19:41:26.090Z,3.30
2018-03-26T19:43:53.708Z,3.30
2018-03-26T19:46:21.307Z,3.30
2018-03-26T19:48:48.935Z,3.30
2018-03-26T19:51:16.531Z,3.30
2018-03-26T19:53:44.176Z,3.30
2018-03-26T19:56:12.534Z,3.30
2018-03-26T19:58:40.156Z,3.30
2018-03-26T20:01:07.816Z,3.30
2018-03-26T20:03:35.443Z,3.30
2018-03-26T20:06:03.029Z,3.30
2018-03-26T20:08:31.378Z,3.30
2018-03-26T20:10:58.970Z,3.30
2018-03-26T20:13:27.395Z,3.30
2018-03-26T20:15:54.968Z,3.30
2018-03-26T20:18:22.546Z,3.30
2018-03-26T20:20:50.135Z,3.30
2018-03-26T20:23:17.746Z,3.30
2018-03-26T20:25:45.336Z,3.20
2018-03-26T20:28:12.943Z,3.30
2018-03-26T20:30:41.508Z,3.20
2018-03-26T20:33:09.096Z,3.20
2018-03-26T20:35:36.687Z,3.20
2018-03-26T20:38:04.283Z,3.20
2018-03-26T20:40:31.881Z,3.20
2018-03-26T20:43:00.235Z,3.20
2018-03-26T20:45:27.828Z,3.20
2018-03-26T20:47:56.186Z,3.20
2018-03-26T20:50:23.795Z,3.20
2018-03-26T20:52:51.386Z,3.20
2018-03-26T20:55:18.988Z,3.20
2018-03-26T20:57:46.570Z,3.20
2018-03-26T21:00:14.934Z,3.20
2018-03-26T21:02:42.556Z,3.20
2018-03-26T21:05:10.147Z,3.20
2018-03-26T21:07:37.798Z,3.20
2018-03-26T21:10:05.391Z,3.20
2018-03-26T21:12:33.791Z,3.10
2018-03-26T21:15:01.383Z,3.10
2018-03-26T21:17:28.976Z,3.10
2018-03-26T21:19:56.562Z,3.00
2018-03-26T21:22:24.237Z,3.00
2018-03-26T21:24:51.822Z,2.90
2018-03-26T21:27:19.412Z,2.90
2018-03-26T21:29:47.007Z,2.90
2018-03-26T21:32:14.600Z,2.90
2018-03-26T21:34:42.189Z,2.80
2018-03-26T21:37:09.778Z,2.80
2018-03-26T21:39:37.398Z,2.80
2018-03-26T21:42:05.007Z,2.80
2018-03-26T21:44:32.602Z,2.80
2018-03-26T21:47:00.190Z,2.80
2018-03-26T21:49:27.787Z,2.80
2018-03-26T21:51:56.171Z,2.60
2018-03-26T21:54:24.538Z,2.60
2018-03-26T21:56:53.070Z,2.50
2018-03-26T21:59:20.763Z,2.50
2018-03-26T22:01:48.359Z,2.50
2018-03-26T22:04:16.776Z,2.40
2018-03-26T22:06:44.367Z,2.30
2018-03-26T22:09:11.964Z,2.30
2018-03-26T22:11:39.571Z,2.30
2018-03-26T22:14:07.207Z,2.20
2018-03-26T22:16:35.567Z,2.10
2018-03-26T22:19:03.175Z,2.10
2018-03-26T22:21:30.762Z,2.10
2018-03-26T22:23:58.351Z,2.00
2018-03-26T22:26:25.959Z,2.00
2018-03-26T22:28:54.396Z,1.90
2018-03-26T22:31:21.998Z,1.80
2018-03-26T22:33:50.503Z,1.80
2018-03-26T22:36:18.112Z,1.70
2018-03-26T22:38:45.720Z,1.70
2018-03-26T22:41:14.107Z,1.60
2018-03-26T22:43:42.492Z,1.60
2018-03-26T22:46:10.127Z,1.50
2018-03-26T22:48:37.724Z,1.50
2018-03-26T22:51:06.435Z,1.50
2018-03-26T22:53:34.121Z,1.50
2018-03-26T22:56:01.818Z,1.40
2018-03-26T22:58:29.416Z,1.40
2018-03-26T23:00:57.009Z,1.40
2018-03-26T23:03:24.675Z,1.30
2018-03-26T23:05:52.279Z,1.30
2018-03-26T23:08:20.791Z,1.20
2018-03-26T23:10:48.448Z,1.10
2018-03-26T23:13:16.264Z,1.10
2018-03-26T23:15:43.911Z,1.10
2018-03-26T23:18:11.623Z,1.00
2018-03-26T23:20:39.208Z,1.00
2018-03-26T23:23:07.235Z,0.90
2018-03-26T23:25:34.855Z,0.90
2018-03-26T23:28:03.219Z,0.90
2018-03-26T23:30:30.848Z,0.90
2018-03-26T23:32:58.459Z,0.90
2018-03-26T23:35:26.124Z,0.80
2018-03-26T23:37:53.715Z,0.80
2018-03-26T23:40:21.412Z,0.80
2018-03-26T23:42:49.110Z,0.80
2018-03-26T23:45:16.752Z,0.80
2018-03-26T23:47:44.414Z,0.80
2018-03-26T23:50:12.051Z,0.80
2018-03-26T23:52:39.659Z,0.90
2018-03-26T23:55:07.262Z,0.90
2018-03-26T23:57:34.887Z,1.00
